sensor_id;sensor_type;location;lat;lon;timestamp;P1;durP1;ratioP1;P2;durP2;ratioP2
6027;SDS011;3042;43.194;27.646;2023-11-19T00:00:19;35.03;;;31.93;;
6027;SDS011;3042;43.194;27.646;2023-11-19T00:02:46;39.33;;;34.67;;
6027;SDS011;3042;43.194;27.646;2023-11-19T00:05:13;35.40;;;32.10;;
6027;SDS011;3042;43.194;27.646;2023-11-19T00:07:41;36.67;;;33.30;;
6027;SDS011;3042;43.194;27.646;2023-11-19T00:10:09;40.90;;;37.30;;
6027;SDS011;3042;43.194;27.646;2023-11-19T00:12:37;35.90;;;32.60;;
6027;SDS011;3042;43.194;27.646;2023-11-19T00:15:05;41.13;;;37.43;;
6027;SDS011;3042;43.194;27.646;2023-11-19T00:17:37;43.90;;;39.70;;
6027;SDS011;3042;43.194;27.646;2023-11-19T00:20:06;35.30;;;32.03;;
6027;SDS011;3042;43.194;27.646;2023-11-19T00:22:34;40.33;;;36.73;;
6027;SDS011;3042;43.194;27.646;2023-11-19T00:25:01;37.27;;;33.73;;
6027;SDS011;3042;43.194;27.646;2023-11-19T00:27:28;36.60;;;33.10;;
6027;SDS011;3042;43.194;27.646;2023-11-19T00:29:56;40.60;;;36.80;;
6027;SDS011;3042;43.194;27.646;2023-11-19T00:32:23;38.37;;;34.87;;
6027;SDS011;3042;43.194;27.646;2023-11-19T00:34:52;42.27;;;38.37;;
6027;SDS011;3042;43.194;27.646;2023-11-19T00:37:19;43.87;;;39.97;;
6027;SDS011;3042;43.194;27.646;2023-11-19T00:39:46;37.17;;;33.77;;
6027;SDS011;3042;43.194;27.646;2023-11-19T00:42:13;36.53;;;33.00;;
6027;SDS011;3042;43.194;27.646;2023-11-19T00:44:40;41.00;;;37.20;;
6027;SDS011;3042;43.194;27.646;2023-11-19T00:47:07;39.03;;;35.30;;
6027;SDS011;3042;43.194;27.646;2023-11-19T00:49:34;44.07;;;39.73;;
6027;SDS011;3042;43.194;27.646;2023-11-19T00:52:03;37.80;;;34.00;;
6027;SDS011;3042;43.194;27.646;2023-11-19T00:54:31;40.67;;;36.80;;
6027;SDS011;3042;43.194;27.646;2023-11-19T00:56:58;44.70;;;40.70;;
6027;SDS011;3042;43.194;27.646;2023-11-19T00:59:26;42.83;;;38.77;;
6027;SDS011;3042;43.194;27.646;2023-11-19T01:01:54;38.87;;;35.23;;
6027;SDS011;3042;43.194;27.646;2023-11-19T01:04:21;41.70;;;37.90;;
6027;SDS011;3042;43.194;27.646;2023-11-19T01:06:49;36.47;;;32.97;;
6027;SDS011;3042;43.194;27.646;2023-11-19T01:09:18;38.37;;;34.67;;
6027;SDS011;3042;43.194;27.646;2023-11-19T01:11:45;40.23;;;36.53;;
6027;SDS011;3042;43.194;27.646;2023-11-19T01:14:12;40.40;;;36.60;;
6027;SDS011;3042;43.194;27.646;2023-11-19T01:16:39;47.23;;;42.37;;
6027;SDS011;3042;43.194;27.646;2023-11-19T01:19:06;41.07;;;37.23;;
6027;SDS011;3042;43.194;27.646;2023-11-19T01:21:33;37.83;;;34.10;;
6027;SDS011;3042;43.194;27.646;2023-11-19T01:24:00;43.77;;;39.70;;
6027;SDS011;3042;43.194;27.646;2023-11-19T01:26:30;39.33;;;35.63;;
6027;SDS011;3042;43.194;27.646;2023-11-19T01:28:57;41.03;;;36.83;;
6027;SDS011;3042;43.194;27.646;2023-11-19T01:31:25;43.03;;;38.57;;
6027;SDS011;3042;43.194;27.646;2023-11-19T01:33:52;41.60;;;37.23;;
6027;SDS011;3042;43.194;27.646;2023-11-19T01:36:19;43.33;;;39.23;;
6027;SDS011;3042;43.194;27.646;2023-11-19T01:38:46;48.57;;;43.97;;
6027;SDS011;3042;43.194;27.646;2023-11-19T01:41:13;36.80;;;33.10;;
6027;SDS011;3042;43.194;27.646;2023-11-19T01:43:42;38.27;;;34.60;;
6027;SDS011;3042;43.194;27.646;2023-11-19T01:46:12;34.47;;;30.80;;
6027;SDS011;3042;43.194;27.646;2023-11-19T01:48:41;34.33;;;30.93;;
6027;SDS011;3042;43.194;27.646;2023-11-19T01:51:11;38.13;;;34.50;;
6027;SDS011;3042;43.194;27.646;2023-11-19T01:53:41;34.90;;;31.30;;
6027;SDS011;3042;43.194;27.646;2023-11-19T01:56:11;39.00;;;35.20;;
6027;SDS011;3042;43.194;27.646;2023-11-19T01:58:42;40.00;;;36.30;;
6027;SDS011;3042;43.194;27.646;2023-11-19T02:01:10;34.20;;;31.00;;
6027;SDS011;3042;43.194;27.646;2023-11-19T02:03:39;38.93;;;34.87;;
6027;SDS011;3042;43.194;27.646;2023-11-19T02:06:06;42.10;;;38.20;;
6027;SDS011;3042;43.194;27.646;2023-11-19T02:08:35;34.67;;;31.40;;
6027;SDS011;3042;43.194;27.646;2023-11-19T02:11:02;38.20;;;34.50;;
6027;SDS011;3042;43.194;27.646;2023-11-19T02:13:29;32.20;;;29.03;;
6027;SDS011;3042;43.194;27.646;2023-11-19T02:15:58;32.33;;;29.23;;
6027;SDS011;3042;43.194;27.646;2023-11-19T02:18:27;37.57;;;33.77;;
6027;SDS011;3042;43.194;27.646;2023-11-19T02:20:54;31.53;;;28.43;;
6027;SDS011;3042;43.194;27.646;2023-11-19T02:23:22;42.90;;;39.00;;
6027;SDS011;3042;43.194;27.646;2023-11-19T02:26:02;38.13;;;34.53;;
6027;SDS011;3042;43.194;27.646;2023-11-19T02:28:37;35.83;;;32.43;;
6027;SDS011;3042;43.194;27.646;2023-11-19T02:31:05;44.97;;;40.90;;
6027;SDS011;3042;43.194;27.646;2023-11-19T02:33:34;34.70;;;31.50;;
6027;SDS011;3042;43.194;27.646;2023-11-19T02:36:02;37.80;;;34.20;;
6027;SDS011;3042;43.194;27.646;2023-11-19T02:38:29;50.80;;;46.30;;
6027;SDS011;3042;43.194;27.646;2023-11-19T02:40:57;37.57;;;33.97;;
6027;SDS011;3042;43.194;27.646;2023-11-19T02:43:24;39.87;;;36.07;;
6027;SDS011;3042;43.194;27.646;2023-11-19T02:45:52;37.80;;;34.10;;
6027;SDS011;3042;43.194;27.646;2023-11-19T02:48:21;38.07;;;34.27;;
6027;SDS011;3042;43.194;27.646;2023-11-19T02:50:48;39.37;;;35.47;;
6027;SDS011;3042;43.194;27.646;2023-11-19T02:53:15;31.97;;;28.87;;
6027;SDS011;3042;43.194;27.646;2023-11-19T02:55:43;39.37;;;35.47;;
6027;SDS011;3042;43.194;27.646;2023-11-19T02:58:13;40.53;;;36.33;;
6027;SDS011;3042;43.194;27.646;2023-11-19T03:00:48;36.93;;;33.33;;
6027;SDS011;3042;43.194;27.646;2023-11-19T03:03:23;38.00;;;34.43;;
6027;SDS011;3042;43.194;27.646;2023-11-19T03:05:54;45.20;;;38.70;;
6027;SDS011;3042;43.194;27.646;2023-11-19T03:08:21;41.20;;;37.10;;
6027;SDS011;3042;43.194;27.646;2023-11-19T03:10:48;43.33;;;39.23;;
6027;SDS011;3042;43.194;27.646;2023-11-19T03:13:15;43.63;;;38.93;;
6027;SDS011;3042;43.194;27.646;2023-11-19T03:15:43;44.60;;;40.20;;
6027;SDS011;3042;43.194;27.646;2023-11-19T03:18:11;53.50;;;48.60;;
6027;SDS011;3042;43.194;27.646;2023-11-19T03:20:39;51.10;;;45.83;;
6027;SDS011;3042;43.194;27.646;2023-11-19T03:23:06;49.73;;;44.80;;
6027;SDS011;3042;43.194;27.646;2023-11-19T03:25:33;45.87;;;41.37;;
6027;SDS011;3042;43.194;27.646;2023-11-19T03:28:01;41.10;;;36.83;;
6027;SDS011;3042;43.194;27.646;2023-11-19T03:30:29;45.17;;;40.77;;
6027;SDS011;3042;43.194;27.646;2023-11-19T03:32:58;42.87;;;38.63;;
6027;SDS011;3042;43.194;27.646;2023-11-19T03:35:26;40.93;;;36.60;;
6027;SDS011;3042;43.194;27.646;2023-11-19T03:37:56;43.90;;;39.53;;
6027;SDS011;3042;43.194;27.646;2023-11-19T03:40:24;38.27;;;34.17;;
6027;SDS011;3042;43.194;27.646;2023-11-19T03:42:51;38.50;;;34.50;;
6027;SDS011;3042;43.194;27.646;2023-11-19T03:45:17;47.40;;;42.80;;
6027;SDS011;3042;43.194;27.646;2023-11-19T03:47:44;44.03;;;39.50;;
6027;SDS011;3042;43.194;27.646;2023-11-19T03:50:11;56.00;;;50.80;;
6027;SDS011;3042;43.194;27.646;2023-11-19T03:52:41;54.23;;;49.03;;
6027;SDS011;3042;43.194;27.646;2023-11-19T03:55:10;55.00;;;49.83;;
6027;SDS011;3042;43.194;27.646;2023-11-19T03:57:37;49.67;;;44.97;;
6027;SDS011;3042;43.194;27.646;2023-11-19T04:00:05;45.73;;;40.67;;
6027;SDS011;3042;43.194;27.646;2023-11-19T04:02:35;41.93;;;37.73;;
6027;SDS011;3042;43.194;27.646;2023-11-19T04:05:02;42.07;;;37.97;;
6027;SDS011;3042;43.194;27.646;2023-11-19T04:07:30;43.93;;;39.73;;
6027;SDS011;3042;43.194;27.646;2023-11-19T04:09:58;37.00;;;33.27;;
6027;SDS011;3042;43.194;27.646;2023-11-19T04:12:26;35.53;;;32.03;;
6027;SDS011;3042;43.194;27.646;2023-11-19T04:14:53;33.77;;;30.50;;
6027;SDS011;3042;43.194;27.646;2023-11-19T04:17:21;40.40;;;36.70;;
6027;SDS011;3042;43.194;27.646;2023-11-19T04:19:49;41.80;;;37.80;;
6027;SDS011;3042;43.194;27.646;2023-11-19T04:22:17;40.80;;;37.37;;
6027;SDS011;3042;43.194;27.646;2023-11-19T04:24:44;39.50;;;35.90;;
6027;SDS011;3042;43.194;27.646;2023-11-19T04:27:11;36.53;;;33.50;;
6027;SDS011;3042;43.194;27.646;2023-11-19T04:29:39;35.73;;;32.57;;
6027;SDS011;3042;43.194;27.646;2023-11-19T04:32:06;37.77;;;34.30;;
6027;SDS011;3042;43.194;27.646;2023-11-19T04:34:34;35.13;;;31.90;;
6027;SDS011;3042;43.194;27.646;2023-11-19T04:37:02;35.03;;;31.83;;
6027;SDS011;3042;43.194;27.646;2023-11-19T04:39:30;32.07;;;28.87;;
6027;SDS011;3042;43.194;27.646;2023-11-19T04:41:57;31.50;;;28.70;;
6027;SDS011;3042;43.194;27.646;2023-11-19T04:44:24;34.53;;;31.53;;
6027;SDS011;3042;43.194;27.646;2023-11-19T04:46:53;39.60;;;35.90;;
6027;SDS011;3042;43.194;27.646;2023-11-19T04:49:20;42.00;;;38.53;;
6027;SDS011;3042;43.194;27.646;2023-11-19T04:51:47;35.83;;;32.63;;
6027;SDS011;3042;43.194;27.646;2023-11-19T04:54:14;35.50;;;32.20;;
6027;SDS011;3042;43.194;27.646;2023-11-19T04:56:44;33.10;;;30.00;;
6027;SDS011;3042;43.194;27.646;2023-11-19T04:59:12;29.80;;;27.00;;
6027;SDS011;3042;43.194;27.646;2023-11-19T05:01:39;29.07;;;26.53;;
6027;SDS011;3042;43.194;27.646;2023-11-19T05:04:08;29.63;;;26.37;;
6027;SDS011;3042;43.194;27.646;2023-11-19T05:06:36;27.00;;;24.70;;
6027;SDS011;3042;43.194;27.646;2023-11-19T05:09:03;32.87;;;30.00;;
6027;SDS011;3042;43.194;27.646;2023-11-19T05:11:32;31.13;;;28.40;;
6027;SDS011;3042;43.194;27.646;2023-11-19T05:14:01;30.60;;;27.83;;
6027;SDS011;3042;43.194;27.646;2023-11-19T05:16:29;28.50;;;25.90;;
6027;SDS011;3042;43.194;27.646;2023-11-19T05:18:56;26.83;;;24.53;;
6027;SDS011;3042;43.194;27.646;2023-11-19T05:21:25;26.53;;;23.87;;
6027;SDS011;3042;43.194;27.646;2023-11-19T05:23:52;25.40;;;23.40;;
6027;SDS011;3042;43.194;27.646;2023-11-19T05:26:21;24.00;;;22.00;;
6027;SDS011;3042;43.194;27.646;2023-11-19T05:28:57;22.93;;;21.13;;
6027;SDS011;3042;43.194;27.646;2023-11-19T05:31:24;24.47;;;22.47;;
6027;SDS011;3042;43.194;27.646;2023-11-19T05:33:52;23.43;;;21.63;;
6027;SDS011;3042;43.194;27.646;2023-11-19T05:36:19;23.83;;;21.83;;
6027;SDS011;3042;43.194;27.646;2023-11-19T05:38:48;22.00;;;20.50;;
6027;SDS011;3042;43.194;27.646;2023-11-19T05:41:15;22.63;;;20.83;;
6027;SDS011;3042;43.194;27.646;2023-11-19T05:43:42;19.33;;;18.03;;
6027;SDS011;3042;43.194;27.646;2023-11-19T05:46:09;19.80;;;18.47;;
6027;SDS011;3042;43.194;27.646;2023-11-19T05:48:38;23.70;;;21.93;;
6027;SDS011;3042;43.194;27.646;2023-11-19T05:51:05;25.77;;;23.30;;
6027;SDS011;3042;43.194;27.646;2023-11-19T05:53:32;24.80;;;22.90;;
6027;SDS011;3042;43.194;27.646;2023-11-19T05:56:01;24.70;;;22.93;;
6027;SDS011;3042;43.194;27.646;2023-11-19T05:58:29;22.47;;;20.63;;
6027;SDS011;3042;43.194;27.646;2023-11-19T06:00:57;22.77;;;21.08;;
6027;SDS011;3042;43.194;27.646;2023-11-19T06:03:26;23.40;;;21.70;;
6027;SDS011;3042;43.194;27.646;2023-11-19T06:05:53;21.03;;;19.60;;
6027;SDS011;3042;43.194;27.646;2023-11-19T06:08:22;21.67;;;20.03;;
6027;SDS011;3042;43.194;27.646;2023-11-19T06:10:49;21.23;;;19.83;;
6027;SDS011;3042;43.194;27.646;2023-11-19T06:13:18;18.67;;;17.27;;
6027;SDS011;3042;43.194;27.646;2023-11-19T06:15:45;20.50;;;19.10;;
6027;SDS011;3042;43.194;27.646;2023-11-19T06:18:12;21.40;;;19.57;;
6027;SDS011;3042;43.194;27.646;2023-11-19T06:20:40;21.00;;;19.57;;
6027;SDS011;3042;43.194;27.646;2023-11-19T06:23:07;17.43;;;16.33;;
6027;SDS011;3042;43.194;27.646;2023-11-19T06:25:34;18.43;;;17.23;;
6027;SDS011;3042;43.194;27.646;2023-11-19T06:28:02;19.30;;;18.00;;
6027;SDS011;3042;43.194;27.646;2023-11-19T06:30:31;18.40;;;17.40;;
6027;SDS011;3042;43.194;27.646;2023-11-19T06:32:58;15.80;;;15.00;;
6027;SDS011;3042;43.194;27.646;2023-11-19T06:35:25;17.40;;;16.50;;
6027;SDS011;3042;43.194;27.646;2023-11-19T06:37:54;19.40;;;17.70;;
6027;SDS011;3042;43.194;27.646;2023-11-19T06:40:21;19.50;;;18.27;;
6027;SDS011;3042;43.194;27.646;2023-11-19T06:42:51;21.60;;;20.10;;
6027;SDS011;3042;43.194;27.646;2023-11-19T06:45:26;17.27;;;16.27;;
6027;SDS011;3042;43.194;27.646;2023-11-19T06:47:55;18.60;;;17.40;;
6027;SDS011;3042;43.194;27.646;2023-11-19T06:50:22;17.60;;;16.50;;
6027;SDS011;3042;43.194;27.646;2023-11-19T06:52:49;18.90;;;17.40;;
6027;SDS011;3042;43.194;27.646;2023-11-19T06:55:23;18.40;;;17.10;;
6027;SDS011;3042;43.194;27.646;2023-11-19T06:58:02;16.87;;;15.67;;
6027;SDS011;3042;43.194;27.646;2023-11-19T07:00:37;17.90;;;16.80;;
6027;SDS011;3042;43.194;27.646;2023-11-19T07:03:05;18.87;;;17.40;;
6027;SDS011;3042;43.194;27.646;2023-11-19T07:05:35;16.07;;;15.17;;
6027;SDS011;3042;43.194;27.646;2023-11-19T07:08:05;17.40;;;16.37;;
6027;SDS011;3042;43.194;27.646;2023-11-19T07:10:33;16.57;;;15.67;;
6027;SDS011;3042;43.194;27.646;2023-11-19T07:13:00;18.27;;;16.10;;
6027;SDS011;3042;43.194;27.646;2023-11-19T07:15:31;17.90;;;16.70;;
6027;SDS011;3042;43.194;27.646;2023-11-19T07:17:58;17.80;;;16.60;;
6027;SDS011;3042;43.194;27.646;2023-11-19T07:20:27;17.93;;;16.93;;
6027;SDS011;3042;43.194;27.646;2023-11-19T07:22:54;19.47;;;18.27;;
6027;SDS011;3042;43.194;27.646;2023-11-19T07:25:22;15.10;;;14.40;;
6027;SDS011;3042;43.194;27.646;2023-11-19T07:27:51;15.60;;;14.80;;
6027;SDS011;3042;43.194;27.646;2023-11-19T07:30:18;17.23;;;16.13;;
6027;SDS011;3042;43.194;27.646;2023-11-19T07:32:45;18.47;;;17.37;;
6027;SDS011;3042;43.194;27.646;2023-11-19T07:35:12;20.60;;;18.80;;
6027;SDS011;3042;43.194;27.646;2023-11-19T07:37:42;17.47;;;16.37;;
6027;SDS011;3042;43.194;27.646;2023-11-19T07:42:54;16.60;;;15.50;;
6027;SDS011;3042;43.194;27.646;2023-11-19T07:45:22;16.90;;;15.57;;
6027;SDS011;3042;43.194;27.646;2023-11-19T07:47:49;18.47;;;16.87;;
6027;SDS011;3042;43.194;27.646;2023-11-19T07:50:16;16.13;;;15.30;;
6027;SDS011;3042;43.194;27.646;2023-11-19T07:52:46;17.73;;;16.40;;
6027;SDS011;3042;43.194;27.646;2023-11-19T07:55:14;17.90;;;16.80;;
6027;SDS011;3042;43.194;27.646;2023-11-19T07:57:41;17.40;;;16.50;;
6027;SDS011;3042;43.194;27.646;2023-11-19T08:00:10;17.23;;;16.23;;
6027;SDS011;3042;43.194;27.646;2023-11-19T08:02:38;15.97;;;15.10;;
6027;SDS011;3042;43.194;27.646;2023-11-19T08:05:08;16.30;;;15.50;;
6027;SDS011;3042;43.194;27.646;2023-11-19T08:07:37;18.17;;;16.87;;
6027;SDS011;3042;43.194;27.646;2023-11-19T08:10:06;15.83;;;15.00;;
6027;SDS011;3042;43.194;27.646;2023-11-19T08:12:35;17.30;;;16.20;;
6027;SDS011;3042;43.194;27.646;2023-11-19T08:15:02;18.07;;;16.77;;
6027;SDS011;3042;43.194;27.646;2023-11-19T08:17:29;16.80;;;15.20;;
6027;SDS011;3042;43.194;27.646;2023-11-19T08:19:58;16.10;;;14.70;;
6027;SDS011;3042;43.194;27.646;2023-11-19T08:22:25;15.83;;;14.53;;
6027;SDS011;3042;43.194;27.646;2023-11-19T08:24:52;15.20;;;14.50;;
6027;SDS011;3042;43.194;27.646;2023-11-19T08:27:21;16.10;;;15.03;;
6027;SDS011;3042;43.194;27.646;2023-11-19T08:29:52;15.77;;;14.70;;
6027;SDS011;3042;43.194;27.646;2023-11-19T08:32:20;15.87;;;15.10;;
6027;SDS011;3042;43.194;27.646;2023-11-19T08:34:48;16.60;;;15.60;;
6027;SDS011;3042;43.194;27.646;2023-11-19T08:37:15;15.87;;;14.97;;
6027;SDS011;3042;43.194;27.646;2023-11-19T08:39:43;19.60;;;18.00;;
6027;SDS011;3042;43.194;27.646;2023-11-19T08:42:11;15.30;;;14.57;;
6027;SDS011;3042;43.194;27.646;2023-11-19T08:44:40;17.97;;;16.93;;
6027;SDS011;3042;43.194;27.646;2023-11-19T08:47:09;16.40;;;15.40;;
6027;SDS011;3042;43.194;27.646;2023-11-19T08:49:36;15.00;;;14.20;;
6027;SDS011;3042;43.194;27.646;2023-11-19T08:52:04;15.80;;;15.00;;
6027;SDS011;3042;43.194;27.646;2023-11-19T08:54:32;15.70;;;14.90;;
6027;SDS011;3042;43.194;27.646;2023-11-19T08:56:59;16.80;;;15.80;;
6027;SDS011;3042;43.194;27.646;2023-11-19T08:59:28;17.47;;;15.93;;
6027;SDS011;3042;43.194;27.646;2023-11-19T09:01:57;16.60;;;15.40;;
6027;SDS011;3042;43.194;27.646;2023-11-19T09:04:24;16.67;;;15.57;;
6027;SDS011;3042;43.194;27.646;2023-11-19T09:06:51;15.47;;;14.67;;
6027;SDS011;3042;43.194;27.646;2023-11-19T09:09:18;17.37;;;16.47;;
6027;SDS011;3042;43.194;27.646;2023-11-19T09:11:45;18.50;;;17.03;;
6027;SDS011;3042;43.194;27.646;2023-11-19T09:14:12;16.67;;;15.50;;
6027;SDS011;3042;43.194;27.646;2023-11-19T09:16:39;16.87;;;15.60;;
6027;SDS011;3042;43.194;27.646;2023-11-19T09:19:08;16.50;;;15.33;;
6027;SDS011;3042;43.194;27.646;2023-11-19T09:21:35;14.93;;;14.03;;
6027;SDS011;3042;43.194;27.646;2023-11-19T09:24:04;17.58;;;16.30;;
6027;SDS011;3042;43.194;27.646;2023-11-19T09:26:32;16.17;;;15.27;;
6027;SDS011;3042;43.194;27.646;2023-11-19T09:29:01;17.03;;;15.80;;
6027;SDS011;3042;43.194;27.646;2023-11-19T09:31:28;18.47;;;17.40;;
6027;SDS011;3042;43.194;27.646;2023-11-19T09:33:55;14.70;;;14.00;;
6027;SDS011;3042;43.194;27.646;2023-11-19T09:36:26;17.47;;;16.30;;
6027;SDS011;3042;43.194;27.646;2023-11-19T09:38:53;16.73;;;15.77;;
6027;SDS011;3042;43.194;27.646;2023-11-19T09:41:20;18.37;;;17.20;;
6027;SDS011;3042;43.194;27.646;2023-11-19T09:43:48;16.03;;;15.13;;
6027;SDS011;3042;43.194;27.646;2023-11-19T09:46:16;16.33;;;15.40;;
6027;SDS011;3042;43.194;27.646;2023-11-19T09:48:43;17.03;;;15.77;;
6027;SDS011;3042;43.194;27.646;2023-11-19T09:51:13;16.60;;;15.65;;
6027;SDS011;3042;43.194;27.646;2023-11-19T09:53:42;16.93;;;15.70;;
6027;SDS011;3042;43.194;27.646;2023-11-19T09:56:09;16.10;;;15.20;;
6027;SDS011;3042;43.194;27.646;2023-11-19T09:58:37;14.10;;;13.40;;
6027;SDS011;3042;43.194;27.646;2023-11-19T10:01:05;16.17;;;15.20;;
6027;SDS011;3042;43.194;27.646;2023-11-19T10:03:35;15.27;;;14.40;;
6027;SDS011;3042;43.194;27.646;2023-11-19T10:06:05;16.40;;;15.60;;
6027;SDS011;3042;43.194;27.646;2023-11-19T10:08:33;17.70;;;16.60;;
6027;SDS011;3042;43.194;27.646;2023-11-19T10:11:06;15.13;;;14.37;;
6027;SDS011;3042;43.194;27.646;2023-11-19T10:13:33;16.60;;;15.60;;
6027;SDS011;3042;43.194;27.646;2023-11-19T10:16:04;14.47;;;13.57;;
6027;SDS011;3042;43.194;27.646;2023-11-19T10:18:36;16.30;;;15.30;;
6027;SDS011;3042;43.194;27.646;2023-11-19T10:21:04;16.10;;;15.20;;
6027;SDS011;3042;43.194;27.646;2023-11-19T10:23:47;15.20;;;14.50;;
6027;SDS011;3042;43.194;27.646;2023-11-19T10:26:17;14.37;;;13.57;;
6027;SDS011;3042;43.194;27.646;2023-11-19T10:28:45;15.10;;;14.30;;
6027;SDS011;3042;43.194;27.646;2023-11-19T10:31:15;15.83;;;14.80;;
6027;SDS011;3042;43.194;27.646;2023-11-19T10:33:43;17.30;;;16.17;;
6027;SDS011;3042;43.194;27.646;2023-11-19T10:36:11;15.20;;;14.20;;
6027;SDS011;3042;43.194;27.646;2023-11-19T10:38:39;16.90;;;16.00;;
6027;SDS011;3042;43.194;27.646;2023-11-19T10:41:07;16.97;;;15.90;;
6027;SDS011;3042;43.194;27.646;2023-11-19T10:43:43;18.03;;;16.57;;
6027;SDS011;3042;43.194;27.646;2023-11-19T10:46:11;17.00;;;15.80;;
6027;SDS011;3042;43.194;27.646;2023-11-19T10:48:44;18.53;;;17.33;;
6027;SDS011;3042;43.194;27.646;2023-11-19T10:51:11;14.63;;;13.73;;
6027;SDS011;3042;43.194;27.646;2023-11-19T10:53:46;16.73;;;15.10;;
6027;SDS011;3042;43.194;27.646;2023-11-19T10:56:16;17.30;;;16.07;;
6027;SDS011;3042;43.194;27.646;2023-11-19T10:58:48;16.73;;;15.57;;
6027;SDS011;3042;43.194;27.646;2023-11-19T11:01:19;18.00;;;16.50;;
6027;SDS011;3042;43.194;27.646;2023-11-19T11:03:47;17.20;;;16.10;;
6027;SDS011;3042;43.194;27.646;2023-11-19T11:06:16;17.67;;;16.33;;
6027;SDS011;3042;43.194;27.646;2023-11-19T11:08:45;17.20;;;16.10;;
6027;SDS011;3042;43.194;27.646;2023-11-19T11:11:15;17.40;;;16.20;;
6027;SDS011;3042;43.194;27.646;2023-11-19T11:13:42;18.53;;;16.93;;
6027;SDS011;3042;43.194;27.646;2023-11-19T11:16:12;18.63;;;17.13;;
6027;SDS011;3042;43.194;27.646;2023-11-19T11:18:40;21.77;;;19.67;;
6027;SDS011;3042;43.194;27.646;2023-11-19T11:21:07;20.67;;;18.70;;
6027;SDS011;3042;43.194;27.646;2023-11-19T11:23:43;19.70;;;18.00;;
6027;SDS011;3042;43.194;27.646;2023-11-19T11:26:32;17.30;;;16.20;;
6027;SDS011;3042;43.194;27.646;2023-11-19T11:29:14;17.47;;;16.13;;
6027;SDS011;3042;43.194;27.646;2023-11-19T11:31:52;17.40;;;16.10;;
6027;SDS011;3042;43.194;27.646;2023-11-19T11:34:37;17.97;;;16.67;;
6027;SDS011;3042;43.194;27.646;2023-11-19T11:37:17;18.20;;;16.80;;
6027;SDS011;3042;43.194;27.646;2023-11-19T11:39:45;16.83;;;15.53;;
6027;SDS011;3042;43.194;27.646;2023-11-19T11:42:34;19.10;;;17.53;;
6027;SDS011;3042;43.194;27.646;2023-11-19T11:45:03;19.00;;;17.20;;
6027;SDS011;3042;43.194;27.646;2023-11-19T11:50:48;19.77;;;18.10;;
6027;SDS011;3042;43.194;27.646;2023-11-19T11:53:17;17.23;;;16.03;;
6027;SDS011;3042;43.194;27.646;2023-11-19T11:55:53;20.73;;;18.77;;
6027;SDS011;3042;43.194;27.646;2023-11-19T11:58:29;18.67;;;17.33;;
6027;SDS011;3042;43.194;27.646;2023-11-19T12:01:03;20.50;;;18.33;;
6027;SDS011;3042;43.194;27.646;2023-11-19T12:03:36;18.93;;;17.33;;
6027;SDS011;3042;43.194;27.646;2023-11-19T12:06:04;18.90;;;17.30;;
6027;SDS011;3042;43.194;27.646;2023-11-19T12:08:33;20.45;;;18.65;;
6027;SDS011;3042;43.194;27.646;2023-11-19T12:11:01;18.80;;;17.10;;
6027;SDS011;3042;43.194;27.646;2023-11-19T12:13:42;17.83;;;16.53;;
6027;SDS011;3042;43.194;27.646;2023-11-19T12:16:14;20.70;;;18.73;;
6027;SDS011;3042;43.194;27.646;2023-11-19T12:18:42;21.20;;;17.33;;
6027;SDS011;3042;43.194;27.646;2023-11-19T12:21:11;18.73;;;17.03;;
6027;SDS011;3042;43.194;27.646;2023-11-19T12:23:55;19.13;;;17.63;;
6027;SDS011;3042;43.194;27.646;2023-11-19T12:26:33;19.63;;;17.80;;
6027;SDS011;3042;43.194;27.646;2023-11-19T12:29:00;17.23;;;16.03;;
6027;SDS011;3042;43.194;27.646;2023-11-19T12:31:31;18.00;;;16.60;;
6027;SDS011;3042;43.194;27.646;2023-11-19T12:34:06;17.87;;;16.47;;
6027;SDS011;3042;43.194;27.646;2023-11-19T12:36:39;19.27;;;17.77;;
6027;SDS011;3042;43.194;27.646;2023-11-19T12:39:08;20.43;;;18.83;;
6027;SDS011;3042;43.194;27.646;2023-11-19T12:41:51;21.48;;;19.48;;
6027;SDS011;3042;43.194;27.646;2023-11-19T12:44:19;20.53;;;18.20;;
6027;SDS011;3042;43.194;27.646;2023-11-19T12:46:47;19.70;;;18.07;;
6027;SDS011;3042;43.194;27.646;2023-11-19T12:49:27;22.30;;;20.40;;
6027;SDS011;3042;43.194;27.646;2023-11-19T12:51:55;25.50;;;18.77;;
6027;SDS011;3042;43.194;27.646;2023-11-19T12:54:31;19.00;;;17.50;;
6027;SDS011;3042;43.194;27.646;2023-11-19T12:56:59;20.67;;;19.07;;
6027;SDS011;3042;43.194;27.646;2023-11-19T12:59:26;21.00;;;19.10;;
6027;SDS011;3042;43.194;27.646;2023-11-19T13:01:54;22.60;;;20.50;;
6027;SDS011;3042;43.194;27.646;2023-11-19T13:04:21;20.20;;;18.50;;
6027;SDS011;3042;43.194;27.646;2023-11-19T13:06:59;19.93;;;18.30;;
6027;SDS011;3042;43.194;27.646;2023-11-19T13:09:29;22.87;;;20.53;;
6027;SDS011;3042;43.194;27.646;2023-11-19T13:11:56;19.10;;;17.40;;
6027;SDS011;3042;43.194;27.646;2023-11-19T13:14:35;22.60;;;20.50;;
6027;SDS011;3042;43.194;27.646;2023-11-19T13:17:03;19.40;;;17.70;;
6027;SDS011;3042;43.194;27.646;2023-11-19T13:19:30;18.80;;;17.37;;
6027;SDS011;3042;43.194;27.646;2023-11-19T13:21:57;20.63;;;19.02;;
6027;SDS011;3042;43.194;27.646;2023-11-19T13:24:26;18.47;;;17.17;;
6027;SDS011;3042;43.194;27.646;2023-11-19T13:26:53;19.97;;;18.03;;
6027;SDS011;3042;43.194;27.646;2023-11-19T13:29:21;20.93;;;19.33;;
6027;SDS011;3042;43.194;27.646;2023-11-19T13:31:48;19.63;;;18.17;;
6027;SDS011;3042;43.194;27.646;2023-11-19T13:34:15;21.03;;;19.33;;
6027;SDS011;3042;43.194;27.646;2023-11-19T13:36:44;21.00;;;19.47;;
6027;SDS011;3042;43.194;27.646;2023-11-19T13:39:13;19.53;;;18.00;;
6027;SDS011;3042;43.194;27.646;2023-11-19T13:41:47;20.63;;;18.50;;
6027;SDS011;3042;43.194;27.646;2023-11-19T13:44:15;18.73;;;17.20;;
6027;SDS011;3042;43.194;27.646;2023-11-19T13:46:44;17.90;;;16.70;;
6027;SDS011;3042;43.194;27.646;2023-11-19T13:49:12;18.57;;;16.87;;
6027;SDS011;3042;43.194;27.646;2023-11-19T13:51:40;20.83;;;19.13;;
6027;SDS011;3042;43.194;27.646;2023-11-19T13:54:07;19.17;;;17.43;;
6027;SDS011;3042;43.194;27.646;2023-11-19T13:56:36;21.07;;;19.17;;
6027;SDS011;3042;43.194;27.646;2023-11-19T13:59:03;20.27;;;18.37;;
6027;SDS011;3042;43.194;27.646;2023-11-19T14:01:30;21.07;;;19.07;;
6027;SDS011;3042;43.194;27.646;2023-11-19T14:03:57;21.30;;;19.03;;
6027;SDS011;3042;43.194;27.646;2023-11-19T14:06:24;20.47;;;18.43;;
6027;SDS011;3042;43.194;27.646;2023-11-19T14:08:52;19.67;;;18.10;;
6027;SDS011;3042;43.194;27.646;2023-11-19T14:11:19;18.83;;;17.13;;
6027;SDS011;3042;43.194;27.646;2023-11-19T14:13:48;22.43;;;20.30;;
6027;SDS011;3042;43.194;27.646;2023-11-19T14:16:15;23.37;;;21.07;;
6027;SDS011;3042;43.194;27.646;2023-11-19T14:18:43;21.23;;;19.47;;
6027;SDS011;3042;43.194;27.646;2023-11-19T14:21:10;19.83;;;18.03;;
6027;SDS011;3042;43.194;27.646;2023-11-19T14:23:40;21.17;;;19.43;;
6027;SDS011;3042;43.194;27.646;2023-11-19T14:26:07;21.03;;;19.27;;
6027;SDS011;3042;43.194;27.646;2023-11-19T14:28:36;21.50;;;19.67;;
6027;SDS011;3042;43.194;27.646;2023-11-19T14:31:05;18.63;;;17.03;;
6027;SDS011;3042;43.194;27.646;2023-11-19T14:33:32;17.97;;;16.60;;
6027;SDS011;3042;43.194;27.646;2023-11-19T14:36:01;18.83;;;17.10;;
6027;SDS011;3042;43.194;27.646;2023-11-19T14:38:28;20.50;;;18.80;;
6027;SDS011;3042;43.194;27.646;2023-11-19T14:40:55;18.97;;;17.20;;
6027;SDS011;3042;43.194;27.646;2023-11-19T14:43:24;18.40;;;16.90;;
6027;SDS011;3042;43.194;27.646;2023-11-19T14:45:51;18.97;;;17.40;;
6027;SDS011;3042;43.194;27.646;2023-11-19T14:48:20;19.50;;;17.90;;